84.3°F
Current conditions from King Hill
Updated every 5 minutes
 
  Tuesday September 2, 2014

Station Historical Data
Daily Summary for January 10, 2012 Units:  Both    English   Metric
« Previous Day
Next Day »
Daily Weekly Monthly Yearly Custom
  High: Low: Average:
Temperature: 34.4 °F /  1.3 °C 17.2 °F /  -8.2 °C 29.2 °F /  -1.6 °C
Dew Point: 27.5 °F /  -2.5 °C 9.4 °F /  -12.6 °C 19.6 °F /  -6.9 °C
Humidity: 81% 52% 68%
Wind Speed: 12.0mph /  19.3km/h - 5.7mph /  9.2km/h
Wind Gust: 25.0mph /  40.2km/h - -
Wind- - SW
Pressure: 29.99 in /  1015.5 hPa 29.69 in /  1005.3 hPa -
Precipitation: 0.00 in /  0 mm    
Historical Graphs
 
 
Tabular Data for January 10, 2012
Time Temperature Dew Point Pressure Wind Wind Speed Wind Gust Humidity Daily Rainfall
00:04 32.2 °F /  0.1 °C 17.0 °F /  -8.3 °C 29.82in /  1009.7hPa SSW 7.0mph /  11.3km/h 16.0mph /  25.7km/h 53% 0.00in /  0mm
00:09 32.1 °F /  0.1 °C 16.9 °F /  -8.4 °C 29.81in /  1009.4hPa SSW 6.0mph /  9.7km/h 16.0mph /  25.7km/h 53% 0.00in /  0mm
00:14 32.2 °F /  0.1 °C 17.0 °F /  -8.3 °C 29.81in /  1009.4hPa SSW 8.0mph /  12.9km/h 16.0mph /  25.7km/h 53% 0.00in /  0mm
00:19 32.2 °F /  0.1 °C 17.0 °F /  -8.3 °C 29.81in /  1009.4hPa SSW 7.0mph /  11.3km/h 17.0mph /  27.4km/h 53% 0.00in /  0mm
00:24 32.1 °F /  0.1 °C 16.9 °F /  -8.4 °C 29.80in /  1009hPa SSW 7.0mph /  11.3km/h 17.0mph /  27.4km/h 53% 0.00in /  0mm
00:29 32.1 °F /  0.1 °C 16.9 °F /  -8.4 °C 29.80in /  1009hPa SSW 6.0mph /  9.7km/h 15.0mph /  24.1km/h 53% 0.00in /  0mm
00:34 32.1 °F /  0.1 °C 16.9 °F /  -8.4 °C 29.80in /  1009hPa SSW 9.0mph /  14.5km/h 15.0mph /  24.1km/h 53% 0.00in /  0mm
00:39 32.1 °F /  0.1 °C 16.9 °F /  -8.4 °C 29.80in /  1009hPa SSW 9.0mph /  14.5km/h 15.0mph /  24.1km/h 53% 0.00in /  0mm
00:44 32.1 °F /  0.1 °C 16.9 °F /  -8.4 °C 29.79in /  1008.7hPa SW 10.0mph /  16.1km/h 17.0mph /  27.4km/h 53% 0.00in /  0mm
00:49 32.1 °F /  0.1 °C 16.9 °F /  -8.4 °C 29.79in /  1008.7hPa SSW 8.0mph /  12.9km/h 17.0mph /  27.4km/h 53% 0.00in /  0mm
00:54 32.1 °F /  0.1 °C 16.5 °F /  -8.6 °C 29.79in /  1008.7hPa SSW 7.0mph /  11.3km/h 18.0mph /  29km/h 52% 0.00in /  0mm
00:59 32.2 °F /  0.1 °C 16.5 °F /  -8.6 °C 29.79in /  1008.7hPa SW 9.0mph /  14.5km/h 18.0mph /  29km/h 52% 0.00in /  0mm
01:04 32.2 °F /  0.1 °C 16.5 °F /  -8.6 °C 29.79in /  1008.7hPa SSW 7.0mph /  11.3km/h 17.0mph /  27.4km/h 52% 0.00in /  0mm
01:09 32.2 °F /  0.1 °C 17.0 °F /  -8.3 °C 29.78in /  1008.4hPa SSW 7.0mph /  11.3km/h 16.0mph /  25.7km/h 53% 0.00in /  0mm
01:14 32.1 °F /  0.1 °C 16.5 °F /  -8.6 °C 29.78in /  1008.4hPa SSW 7.0mph /  11.3km/h 16.0mph /  25.7km/h 52% 0.00in /  0mm
01:19 32.1 °F /  0.1 °C 16.5 °F /  -8.6 °C 29.78in /  1008.4hPa SSW 8.0mph /  12.9km/h 17.0mph /  27.4km/h 52% 0.00in /  0mm
01:24 32.1 °F /  0.1 °C 16.9 °F /  -8.4 °C 29.78in /  1008.4hPa SSW 7.0mph /  11.3km/h 19.0mph /  30.6km/h 53% 0.00in /  0mm
01:29 32.1 °F /  0.1 °C 16.5 °F /  -8.6 °C 29.78in /  1008.4hPa SSW 7.0mph /  11.3km/h 19.0mph /  30.6km/h 52% 0.00in /  0mm
01:34 32.1 °F /  0.1 °C 16.9 °F /  -8.4 °C 29.78in /  1008.4hPa SW 7.0mph /  11.3km/h 16.0mph /  25.7km/h 53% 0.00in /  0mm
01:39 32.0 °F /  0 °C 16.8 °F /  -8.4 °C 29.78in /  1008.4hPa SSW 8.0mph /  12.9km/h 16.0mph /  25.7km/h 53% 0.00in /  0mm
01:44 32.0 °F /  0 °C 16.8 °F /  -8.4 °C 29.78in /  1008.4hPa SSW 5.0mph /  8km/h 16.0mph /  25.7km/h 53% 0.00in /  0mm
01:49 32.0 °F /  0 °C 16.4 °F /  -8.7 °C 29.77in /  1008hPa SSW 9.0mph /  14.5km/h 16.0mph /  25.7km/h 52% 0.00in /  0mm
01:54 32.1 °F /  0.1 °C 16.5 °F /  -8.6 °C 29.77in /  1008hPa SSW 7.0mph /  11.3km/h 16.0mph /  25.7km/h 52% 0.00in /  0mm
01:59 32.1 °F /  0.1 °C 16.9 °F /  -8.4 °C 29.77in /  1008hPa SSW 6.0mph /  9.7km/h 17.0mph /  27.4km/h 53% 0.00in /  0mm
02:04 32.0 °F /  0 °C 16.4 °F /  -8.7 °C 29.77in /  1008hPa SSW 7.0mph /  11.3km/h 17.0mph /  27.4km/h 52% 0.00in /  0mm
02:09 32.0 °F /  0 °C 16.8 °F /  -8.4 °C 29.77in /  1008hPa SSW 9.0mph /  14.5km/h 16.0mph /  25.7km/h 53% 0.00in /  0mm
02:14 32.0 °F /  0 °C 16.8 °F /  -8.4 °C 29.77in /  1008hPa SSW 6.0mph /  9.7km/h 16.0mph /  25.7km/h 53% 0.00in /  0mm
02:19 31.9 °F /  -0.1 °C 16.7 °F /  -8.5 °C 29.77in /  1008hPa SSW 7.0mph /  11.3km/h 16.0mph /  25.7km/h 53% 0.00in /  0mm
02:24 31.8 °F /  -0.1 °C 16.6 °F /  -8.6 °C 29.77in /  1008hPa SSW 6.0mph /  9.7km/h 16.0mph /  25.7km/h 53% 0.00in /  0mm
02:29 31.9 °F /  -0.1 °C 16.7 °F /  -8.5 °C 29.76in /  1007.7hPa SSW 6.0mph /  9.7km/h 16.0mph /  25.7km/h 53% 0.00in /  0mm
02:34 31.7 °F /  -0.2 °C 17.0 °F /  -8.3 °C 29.77in /  1008hPa SSW 8.0mph /  12.9km/h 15.0mph /  24.1km/h 54% 0.00in /  0mm
02:39 31.7 °F /  -0.2 °C 17.0 °F /  -8.3 °C 29.76in /  1007.7hPa SSW 6.0mph /  9.7km/h 17.0mph /  27.4km/h 54% 0.00in /  0mm
02:44 31.7 °F /  -0.2 °C 17.0 °F /  -8.3 °C 29.76in /  1007.7hPa SSW 10.0mph /  16.1km/h 17.0mph /  27.4km/h 54% 0.00in /  0mm
02:49 31.7 °F /  -0.2 °C 16.5 °F /  -8.6 °C 29.76in /  1007.7hPa SSW 9.0mph /  14.5km/h 17.0mph /  27.4km/h 53% 0.00in /  0mm
02:54 31.7 °F /  -0.2 °C 16.5 °F /  -8.6 °C 29.76in /  1007.7hPa SSW 8.0mph /  12.9km/h 17.0mph /  27.4km/h 53% 0.00in /  0mm
02:59 31.7 °F /  -0.2 °C 17.0 °F /  -8.3 °C 29.75in /  1007.3hPa SSW 9.0mph /  14.5km/h 17.0mph /  27.4km/h 54% 0.00in /  0mm
03:04 31.7 °F /  -0.2 °C 17.0 °F /  -8.3 °C 29.75in /  1007.3hPa SSW 8.0mph /  12.9km/h 18.0mph /  29km/h 54% 0.00in /  0mm
03:09 31.6 °F /  -0.2 °C 16.9 °F /  -8.4 °C 29.74in /  1007hPa SSW 7.0mph /  11.3km/h 18.0mph /  29km/h 54% 0.00in /  0mm
03:14 31.6 °F /  -0.2 °C 16.9 °F /  -8.4 °C 29.74in /  1007hPa SSW 7.0mph /  11.3km/h 17.0mph /  27.4km/h 54% 0.00in /  0mm
03:19 31.6 °F /  -0.2 °C 17.3 °F /  -8.2 °C 29.74in /  1007hPa SSW 8.0mph /  12.9km/h 16.0mph /  25.7km/h 55% 0.00in /  0mm
03:24 31.6 °F /  -0.2 °C 17.3 °F /  -8.2 °C 29.74in /  1007hPa SSW 7.0mph /  11.3km/h 15.0mph /  24.1km/h 55% 0.00in /  0mm
03:29 31.7 °F /  -0.2 °C 17.4 °F /  -8.1 °C 29.74in /  1007hPa SSW 8.0mph /  12.9km/h 15.0mph /  24.1km/h 55% 0.00in /  0mm
03:34 31.7 °F /  -0.2 °C 17.4 °F /  -8.1 °C 29.73in /  1006.7hPa SSW 8.0mph /  12.9km/h 15.0mph /  24.1km/h 55% 0.00in /  0mm
03:39 31.6 °F /  -0.2 °C 17.7 °F /  -7.9 °C 29.73in /  1006.7hPa SSW 7.0mph /  11.3km/h 15.0mph /  24.1km/h 56% 0.00in /  0mm
03:44 31.5 °F /  -0.3 °C 17.6 °F /  -8 °C 29.73in /  1006.7hPa SSW 7.0mph /  11.3km/h 16.0mph /  25.7km/h 56% 0.00in /  0mm
03:49 31.5 °F /  -0.3 °C 17.6 °F /  -8 °C 29.73in /  1006.7hPa SSW 7.0mph /  11.3km/h 16.0mph /  25.7km/h 56% 0.00in /  0mm
03:54 31.6 °F /  -0.2 °C 17.7 °F /  -7.9 °C 29.73in /  1006.7hPa SSW 6.0mph /  9.7km/h 15.0mph /  24.1km/h 56% 0.00in /  0mm
03:59 31.6 °F /  -0.2 °C 18.1 °F /  -7.7 °C 29.73in /  1006.7hPa SSW 7.0mph /  11.3km/h 16.0mph /  25.7km/h 57% 0.00in /  0mm
04:04 31.7 °F /  -0.2 °C 17.8 °F /  -7.9 °C 29.72in /  1006.3hPa SSW 8.0mph /  12.9km/h 17.0mph /  27.4km/h 56% 0.00in /  0mm
04:09 31.6 °F /  -0.2 °C 17.7 °F /  -7.9 °C 29.72in /  1006.3hPa SSW 9.0mph /  14.5km/h 17.0mph /  27.4km/h 56% 0.00in /  0mm
04:14 31.6 °F /  -0.2 °C 17.7 °F /  -7.9 °C 29.71in /  1006hPa SSW 8.0mph /  12.9km/h 19.0mph /  30.6km/h 56% 0.00in /  0mm
04:19 31.6 °F /  -0.2 °C 17.7 °F /  -7.9 °C 29.71in /  1006hPa SSW 9.0mph /  14.5km/h 19.0mph /  30.6km/h 56% 0.00in /  0mm
04:24 31.6 °F /  -0.2 °C 18.1 °F /  -7.7 °C 29.71in /  1006hPa SSW 8.0mph /  12.9km/h 19.0mph /  30.6km/h 57% 0.00in /  0mm
04:29 31.5 °F /  -0.3 °C 18.0 °F /  -7.8 °C 29.71in /  1006hPa SSW 7.0mph /  11.3km/h 15.0mph /  24.1km/h 57% 0.00in /  0mm
04:34 31.5 °F /  -0.3 °C 18.0 °F /  -7.8 °C 29.70in /  1005.6hPa SSW 9.0mph /  14.5km/h 15.0mph /  24.1km/h 57% 0.00in /  0mm
04:39 31.5 °F /  -0.3 °C 18.0 °F /  -7.8 °C 29.70in /  1005.6hPa SW 7.0mph /  11.3km/h 15.0mph /  24.1km/h 57% 0.00in /  0mm
04:44 31.5 °F /  -0.3 °C 18.4 °F /  -7.6 °C 29.70in /  1005.6hPa SSW 8.0mph /  12.9km/h 16.0mph /  25.7km/h 58% 0.00in /  0mm
04:49 31.5 °F /  -0.3 °C 18.4 °F /  -7.6 °C 29.70in /  1005.6hPa SSW 9.0mph /  14.5km/h 18.0mph /  29km/h 58% 0.00in /  0mm
04:54 31.5 °F /  -0.3 °C 18.4 °F /  -7.6 °C 29.70in /  1005.6hPa SSW 9.0mph /  14.5km/h 18.0mph /  29km/h 58% 0.00in /  0mm
04:59 31.5 °F /  -0.3 °C 18.8 °F /  -7.3 °C 29.70in /  1005.6hPa SSW 7.0mph /  11.3km/h 16.0mph /  25.7km/h 59% 0.00in /  0mm
05:04 31.5 °F /  -0.3 °C 18.4 °F /  -7.6 °C 29.70in /  1005.6hPa SSW 7.0mph /  11.3km/h 16.0mph /  25.7km/h 58% 0.00in /  0mm
05:09 31.5 °F /  -0.3 °C 18.8 °F /  -7.3 °C 29.70in /  1005.6hPa SSW 6.0mph /  9.7km/h 14.0mph /  22.5km/h 59% 0.00in /  0mm
05:14 31.5 °F /  -0.3 °C 18.8 °F /  -7.3 °C 29.70in /  1005.6hPa SSW 6.0mph /  9.7km/h 14.0mph /  22.5km/h 59% 0.00in /  0mm
05:19 31.5 °F /  -0.3 °C 18.8 °F /  -7.3 °C 29.70in /  1005.6hPa SW 8.0mph /  12.9km/h 16.0mph /  25.7km/h 59% 0.00in /  0mm
05:24 31.5 °F /  -0.3 °C 18.8 °F /  -7.3 °C 29.70in /  1005.6hPa SSW 7.0mph /  11.3km/h 16.0mph /  25.7km/h 59% 0.00in /  0mm
05:34 31.5 °F /  -0.3 °C 19.2 °F /  -7.1 °C 29.69in /  1005.3hPa SW 7.0mph /  11.3km/h 13.0mph /  20.9km/h 60% 0.00in /  0mm
05:39 31.6 °F /  -0.2 °C 18.9 °F /  -7.3 °C 29.70in /  1005.6hPa SW 8.0mph /  12.9km/h 13.0mph /  20.9km/h 59% 0.00in /  0mm
05:44 31.6 °F /  -0.2 °C 19.3 °F /  -7.1 °C 29.70in /  1005.6hPa SSW 8.0mph /  12.9km/h 16.0mph /  25.7km/h 60% 0.00in /  0mm
05:49 31.7 °F /  -0.2 °C 19.4 °F /  -7 °C 29.69in /  1005.3hPa SW 10.0mph /  16.1km/h 16.0mph /  25.7km/h 60% 0.00in /  0mm
05:54 31.7 °F /  -0.2 °C 19.4 °F /  -7 °C 29.69in /  1005.3hPa SSW 8.0mph /  12.9km/h 14.0mph /  22.5km/h 60% 0.00in /  0mm
05:59 31.7 °F /  -0.2 °C 19.4 °F /  -7 °C 29.69in /  1005.3hPa SW 8.0mph /  12.9km/h 15.0mph /  24.1km/h 60% 0.00in /  0mm
06:04 31.7 °F /  -0.2 °C 19.4 °F /  -7 °C 29.69in /  1005.3hPa SSW 8.0mph /  12.9km/h 17.0mph /  27.4km/h 60% 0.00in /  0mm
06:09 31.7 °F /  -0.2 °C 19.4 °F /  -7 °C 29.69in /  1005.3hPa SSW 8.0mph /  12.9km/h 17.0mph /  27.4km/h 60% 0.00in /  0mm
06:14 31.7 °F /  -0.2 °C 19.8 °F /  -6.8 °C 29.69in /  1005.3hPa SSW 6.0mph /  9.7km/h 16.0mph /  25.7km/h 61% 0.00in /  0mm
06:19 31.7 °F /  -0.2 °C 19.8 °F /  -6.8 °C 29.69in /  1005.3hPa SSW 8.0mph /  12.9km/h 16.0mph /  25.7km/h 61% 0.00in /  0mm
06:24 31.8 °F /  -0.1 °C 19.9 °F /  -6.7 °C 29.69in /  1005.3hPa SW 6.0mph /  9.7km/h 16.0mph /  25.7km/h 61% 0.00in /  0mm
06:29 31.8 °F /  -0.1 °C 20.3 °F /  -6.5 °C 29.69in /  1005.3hPa SW 6.0mph /  9.7km/h 15.0mph /  24.1km/h 62% 0.00in /  0mm
06:34 31.9 °F /  -0.1 °C 20.4 °F /  -6.4 °C 29.69in /  1005.3hPa SSW 8.0mph /  12.9km/h 17.0mph /  27.4km/h 62% 0.00in /  0mm
06:39 31.9 °F /  -0.1 °C 20.0 °F /  -6.7 °C 29.69in /  1005.3hPa SW 8.0mph /  12.9km/h 17.0mph /  27.4km/h 61% 0.00in /  0mm
06:44 31.9 °F /  -0.1 °C 20.4 °F /  -6.4 °C 29.70in /  1005.6hPa SW 6.0mph /  9.7km/h 14.0mph /  22.5km/h 62% 0.00in /  0mm
06:49 31.9 °F /  -0.1 °C 20.0 °F /  -6.7 °C 29.69in /  1005.3hPa SW 11.0mph /  17.7km/h 16.0mph /  25.7km/h 61% 0.00in /  0mm
06:54 32.0 °F /  0 °C 20.1 °F /  -6.6 °C 29.70in /  1005.6hPa SSW 9.0mph /  14.5km/h 16.0mph /  25.7km/h 61% 0.00in /  0mm
06:59 31.9 °F /  -0.1 °C 20.4 °F /  -6.4 °C 29.70in /  1005.6hPa SW 4.0mph /  6.4km/h 16.0mph /  25.7km/h 62% 0.00in /  0mm
07:04 31.9 °F /  -0.1 °C 20.4 °F /  -6.4 °C 29.70in /  1005.6hPa SSW 9.0mph /  14.5km/h 16.0mph /  25.7km/h 62% 0.00in /  0mm
07:09 31.8 °F /  -0.1 °C 20.3 °F /  -6.5 °C 29.70in /  1005.6hPa SW 6.0mph /  9.7km/h 15.0mph /  24.1km/h 62% 0.00in /  0mm
07:14 31.7 °F /  -0.2 °C 20.5 °F /  -6.4 °C 29.70in /  1005.6hPa SW 8.0mph /  12.9km/h 16.0mph /  25.7km/h 63% 0.00in /  0mm
07:19 31.8 °F /  -0.1 °C 20.6 °F /  -6.3 °C 29.70in /  1005.6hPa SW 8.0mph /  12.9km/h 17.0mph /  27.4km/h 63% 0.00in /  0mm
07:24 31.7 °F /  -0.2 °C 20.5 °F /  -6.4 °C 29.71in /  1006hPa SW 6.0mph /  9.7km/h 17.0mph /  27.4km/h 63% 0.00in /  0mm
07:29 31.7 °F /  -0.2 °C 20.5 °F /  -6.4 °C 29.71in /  1006hPa SW 8.0mph /  12.9km/h 14.0mph /  22.5km/h 63% 0.00in /  0mm
07:34 31.6 °F /  -0.2 °C 21.2 °F /  -6 °C 29.71in /  1006hPa SW 8.0mph /  12.9km/h 15.0mph /  24.1km/h 65% 0.00in /  0mm
07:39 31.4 °F /  -0.3 °C 21.4 °F /  -5.9 °C 29.71in /  1006hPa SW 7.0mph /  11.3km/h 15.0mph /  24.1km/h 66% 0.00in /  0mm
07:44 31.2 °F /  -0.4 °C 21.9 °F /  -5.6 °C 29.71in /  1006hPa SW 8.0mph /  12.9km/h 14.0mph /  22.5km/h 68% 0.00in /  0mm
07:49 31.1 °F /  -0.5 °C 21.8 °F /  -5.7 °C 29.71in /  1006hPa SW 9.0mph /  14.5km/h 16.0mph /  25.7km/h 68% 0.00in /  0mm
07:54 31.1 °F /  -0.5 °C 21.8 °F /  -5.7 °C 29.71in /  1006hPa SW 8.0mph /  12.9km/h 16.0mph /  25.7km/h 68% 0.00in /  0mm
07:59 31.0 °F /  -0.6 °C 22.0 °F /  -5.6 °C 29.71in /  1006hPa SW 8.0mph /  12.9km/h 15.0mph /  24.1km/h 69% 0.00in /  0mm
08:04 31.0 °F /  -0.6 °C 22.0 °F /  -5.6 °C 29.71in /  1006hPa SW 8.0mph /  12.9km/h 13.0mph /  20.9km/h 69% 0.00in /  0mm
08:09 30.9 °F /  -0.6 °C 22.3 °F /  -5.4 °C 29.71in /  1006hPa SSW 9.0mph /  14.5km/h 15.0mph /  24.1km/h 70% 0.00in /  0mm
08:14 30.7 °F /  -0.7 °C 22.7 °F /  -5.2 °C 29.72in /  1006.3hPa SW 6.0mph /  9.7km/h 15.0mph /  24.1km/h 72% 0.00in /  0mm
08:19 30.5 °F /  -0.8 °C 22.9 °F /  -5.1 °C 29.72in /  1006.3hPa SW 8.0mph /  12.9km/h 16.0mph /  25.7km/h 73% 0.00in /  0mm
08:24 30.3 °F /  -0.9 °C 23.0 °F /  -5 °C 29.72in /  1006.3hPa SW 7.0mph /  11.3km/h 16.0mph /  25.7km/h 74% 0.00in /  0mm
08:29 30.3 °F /  -0.9 °C 23.3 °F /  -4.8 °C 29.72in /  1006.3hPa SW 6.0mph /  9.7km/h 13.0mph /  20.9km/h 75% 0.00in /  0mm
08:34 30.3 °F /  -0.9 °C 23.0 °F /  -5 °C 29.72in /  1006.3hPa SW 9.0mph /  14.5km/h 13.0mph /  20.9km/h 74% 0.00in /  0mm
08:39 30.5 °F /  -0.8 °C 23.2 °F /  -4.9 °C 29.72in /  1006.3hPa SSW 6.0mph /  9.7km/h 13.0mph /  20.9km/h 74% 0.00in /  0mm
08:44 30.5 °F /  -0.8 °C 22.9 °F /  -5.1 °C 29.73in /  1006.7hPa SW 6.0mph /  9.7km/h 11.0mph /  17.7km/h 73% 0.00in /  0mm
08:49 30.5 °F /  -0.8 °C 23.2 °F /  -4.9 °C 29.73in /  1006.7hPa SW 4.0mph /  6.4km/h 11.0mph /  17.7km/h 74% 0.00in /  0mm
08:54 30.5 °F /  -0.8 °C 23.2 °F /  -4.9 °C 29.73in /  1006.7hPa SW 8.0mph /  12.9km/h 14.0mph /  22.5km/h 74% 0.00in /  0mm
08:59 30.5 °F /  -0.8 °C 23.2 °F /  -4.9 °C 29.73in /  1006.7hPa SSW 7.0mph /  11.3km/h 14.0mph /  22.5km/h 74% 0.00in /  0mm
09:04 30.5 °F /  -0.8 °C 23.2 °F /  -4.9 °C 29.73in /  1006.7hPa SW 7.0mph /  11.3km/h 12.0mph /  19.3km/h 74% 0.00in /  0mm
09:09 30.4 °F /  -0.9 °C 23.4 °F /  -4.8 °C 29.73in /  1006.7hPa SSW 5.0mph /  8km/h 12.0mph /  19.3km/h 75% 0.00in /  0mm
09:14 30.3 °F /  -0.9 °C 23.6 °F /  -4.7 °C 29.73in /  1006.7hPa SW 5.0mph /  8km/h 11.0mph /  17.7km/h 76% 0.00in /  0mm
09:19 30.3 °F /  -0.9 °C 23.6 °F /  -4.7 °C 29.73in /  1006.7hPa SW 8.0mph /  12.9km/h 11.0mph /  17.7km/h 76% 0.00in /  0mm
09:24 30.2 °F /  -1 °C 23.6 °F /  -4.7 °C 29.73in /  1006.7hPa SW 8.0mph /  12.9km/h 12.0mph /  19.3km/h 76% 0.00in /  0mm
09:29 30.2 °F /  -1 °C 23.6 °F /  -4.7 °C 29.74in /  1007hPa SSW 6.0mph /  9.7km/h 12.0mph /  19.3km/h 76% 0.00in /  0mm
09:34 30.2 °F /  -1 °C 23.6 °F /  -4.7 °C 29.73in /  1006.7hPa SSW 7.0mph /  11.3km/h 13.0mph /  20.9km/h 76% 0.00in /  0mm
09:39 30.3 °F /  -0.9 °C 23.6 °F /  -4.7 °C 29.73in /  1006.7hPa SW 7.0mph /  11.3km/h 13.0mph /  20.9km/h 76% 0.00in /  0mm
09:44 30.4 °F /  -0.9 °C 23.4 °F /  -4.8 °C 29.73in /  1006.7hPa SW 7.0mph /  11.3km/h 12.0mph /  19.3km/h 75% 0.00in /  0mm
09:49 30.5 °F /  -0.8 °C 23.5 °F /  -4.7 °C 29.74in /  1007hPa SW 7.0mph /  11.3km/h 12.0mph /  19.3km/h 75% 0.00in /  0mm
09:54 30.5 °F /  -0.8 °C 23.5 °F /  -4.7 °C 29.74in /  1007hPa SSW 7.0mph /  11.3km/h 12.0mph /  19.3km/h 75% 0.00in /  0mm
09:59 30.5 °F /  -0.8 °C 23.8 °F /  -4.6 °C 29.74in /  1007hPa SSW 7.0mph /  11.3km/h 12.0mph /  19.3km/h 76% 0.00in /  0mm
10:04 30.5 °F /  -0.8 °C 23.8 °F /  -4.6 °C 29.74in /  1007hPa SSW 6.0mph /  9.7km/h 12.0mph /  19.3km/h 76% 0.00in /  0mm
10:09 30.5 °F /  -0.8 °C 23.8 °F /  -4.6 °C 29.74in /  1007hPa SW 7.0mph /  11.3km/h 11.0mph /  17.7km/h 76% 0.00in /  0mm
10:14 30.5 °F /  -0.8 °C 23.8 °F /  -4.6 °C 29.74in /  1007hPa SSW 9.0mph /  14.5km/h 12.0mph /  19.3km/h 76% 0.00in /  0mm
10:19 30.5 °F /  -0.8 °C 24.2 °F /  -4.3 °C 29.74in /  1007hPa SSW 7.0mph /  11.3km/h 12.0mph /  19.3km/h 77% 0.00in /  0mm
10:24 30.5 °F /  -0.8 °C 24.2 °F /  -4.3 °C 29.74in /  1007hPa SSW 4.0mph /  6.4km/h 10.0mph /  16.1km/h 77% 0.00in /  0mm
10:29 30.5 °F /  -0.8 °C 24.2 °F /  -4.3 °C 29.74in /  1007hPa SSW 5.0mph /  8km/h 10.0mph /  16.1km/h 77% 0.00in /  0mm
10:34 30.6 °F /  -0.8 °C 24.3 °F /  -4.3 °C 29.74in /  1007hPa SSW 6.0mph /  9.7km/h 10.0mph /  16.1km/h 77% 0.00in /  0mm
10:39 30.7 °F /  -0.7 °C 24.3 °F /  -4.3 °C 29.74in /  1007hPa SW 5.0mph /  8km/h 10.0mph /  16.1km/h 77% 0.00in /  0mm
10:44 30.7 °F /  -0.7 °C 24.3 °F /  -4.3 °C 29.74in /  1007hPa SSW 7.0mph /  11.3km/h 11.0mph /  17.7km/h 77% 0.00in /  0mm
10:49 30.7 °F /  -0.7 °C 24.3 °F /  -4.3 °C 29.74in /  1007hPa SSW 7.0mph /  11.3km/h 11.0mph /  17.7km/h 77% 0.00in /  0mm
10:54 30.7 °F /  -0.7 °C 24.3 °F /  -4.3 °C 29.74in /  1007hPa SSW 5.0mph /  8km/h 11.0mph /  17.7km/h 77% 0.00in /  0mm
10:59 30.7 °F /  -0.7 °C 24.3 °F /  -4.3 °C 29.74in /  1007hPa SSW 5.0mph /  8km/h 10.0mph /  16.1km/h 77% 0.00in /  0mm
11:04 30.8 °F /  -0.7 °C 24.4 °F /  -4.2 °C 29.74in /  1007hPa SSW 5.0mph /  8km/h 10.0mph /  16.1km/h 77% 0.00in /  0mm
11:09 30.9 °F /  -0.6 °C 24.5 °F /  -4.2 °C 29.73in /  1006.7hPa SSW 6.0mph /  9.7km/h 10.0mph /  16.1km/h 77% 0.00in /  0mm
11:14 31.1 °F /  -0.5 °C 24.4 °F /  -4.2 °C 29.73in /  1006.7hPa SSW 6.0mph /  9.7km/h 10.0mph /  16.1km/h 76% 0.00in /  0mm
11:19 31.1 °F /  -0.5 °C 24.4 °F /  -4.2 °C 29.73in /  1006.7hPa SSW 7.0mph /  11.3km/h 10.0mph /  16.1km/h 76% 0.00in /  0mm
11:24 31.2 °F /  -0.4 °C 24.5 °F /  -4.2 °C 29.73in /  1006.7hPa SSW 5.0mph /  8km/h 10.0mph /  16.1km/h 76% 0.00in /  0mm
11:34 31.2 °F /  -0.4 °C 24.5 °F /  -4.2 °C 29.74in /  1007hPa SSW 5.0mph /  8km/h 9.0mph /  14.5km/h 76% 0.00in /  0mm
11:39 31.2 °F /  -0.4 °C 24.5 °F /  -4.2 °C 29.74in /  1007hPa SSW 4.0mph /  6.4km/h 9.0mph /  14.5km/h 76% 0.00in /  0mm
11:49 31.2 °F /  -0.4 °C 24.5 °F /  -4.2 °C 29.74in /  1007hPa SSW 5.0mph /  8km/h 8.0mph /  12.9km/h 76% 0.00in /  0mm
11:54 31.3 °F /  -0.4 °C 24.9 °F /  -3.9 °C 29.74in /  1007hPa SSW 5.0mph /  8km/h 8.0mph /  12.9km/h 77% 0.00in /  0mm
11:59 31.3 °F /  -0.4 °C 24.9 °F /  -3.9 °C 29.74in /  1007hPa SW 5.0mph /  8km/h 8.0mph /  12.9km/h 77% 0.00in /  0mm
12:04 31.4 °F /  -0.3 °C 25.0 °F /  -3.9 °C 29.73in /  1006.7hPa SW 4.0mph /  6.4km/h 7.0mph /  11.3km/h 77% 0.00in /  0mm
12:09 31.5 °F /  -0.3 °C 25.4 °F /  -3.7 °C 29.74in /  1007hPa SW 3.0mph /  4.8km/h 7.0mph /  11.3km/h 78% 0.00in /  0mm
12:14 31.8 °F /  -0.1 °C 25.7 °F /  -3.5 °C 29.73in /  1006.7hPa SW 2.0mph /  3.2km/h 7.0mph /  11.3km/h 78% 0.00in /  0mm
12:19 31.8 °F /  -0.1 °C 25.7 °F /  -3.5 °C 29.73in /  1006.7hPa SSW 4.0mph /  6.4km/h 8.0mph /  12.9km/h 78% 0.00in /  0mm
12:24 31.8 °F /  -0.1 °C 26.0 °F /  -3.3 °C 29.73in /  1006.7hPa SSW 3.0mph /  4.8km/h 8.0mph /  12.9km/h 79% 0.00in /  0mm
12:29 31.7 °F /  -0.2 °C 25.9 °F /  -3.4 °C 29.73in /  1006.7hPa SSW 4.0mph /  6.4km/h 7.0mph /  11.3km/h 79% 0.00in /  0mm
12:34 31.6 °F /  -0.2 °C 26.1 °F /  -3.3 °C 29.73in /  1006.7hPa SSW 3.0mph /  4.8km/h 7.0mph /  11.3km/h 80% 0.00in /  0mm
12:39 31.5 °F /  -0.3 °C 26.0 °F /  -3.3 °C 29.73in /  1006.7hPa SSW 3.0mph /  4.8km/h 7.0mph /  11.3km/h 80% 0.00in /  0mm
12:44 31.4 °F /  -0.3 °C 26.2 °F /  -3.2 °C 29.73in /  1006.7hPa SSW 5.0mph /  8km/h 7.0mph /  11.3km/h 81% 0.00in /  0mm
12:49 31.6 °F /  -0.2 °C 26.4 °F /  -3.1 °C 29.73in /  1006.7hPa SSW 3.0mph /  4.8km/h 7.0mph /  11.3km/h 81% 0.00in /  0mm
12:54 31.8 °F /  -0.1 °C 26.6 °F /  -3 °C 29.73in /  1006.7hPa SSW 1.0mph /  1.6km/h 6.0mph /  9.7km/h 81% 0.00in /  0mm
12:59 31.8 °F /  -0.1 °C 26.6 °F /  -3 °C 29.73in /  1006.7hPa SSW 4.0mph /  6.4km/h 6.0mph /  9.7km/h 81% 0.00in /  0mm
13:04 31.9 °F /  -0.1 °C 26.7 °F /  -2.9 °C 29.73in /  1006.7hPa SSW 3.0mph /  4.8km/h 6.0mph /  9.7km/h 81% 0.00in /  0mm
13:09 32.1 °F /  0.1 °C 26.9 °F /  -2.8 °C 29.73in /  1006.7hPa SSW 3.0mph /  4.8km/h 6.0mph /  9.7km/h 81% 0.00in /  0mm
13:14 32.1 °F /  0.1 °C 26.9 °F /  -2.8 °C 29.74in /  1007hPa SSW 3.0mph /  4.8km/h 6.0mph /  9.7km/h 81% 0.00in /  0mm
13:19 32.4 °F /  0.2 °C 27.2 °F /  -2.7 °C 29.73in /  1006.7hPa SSW 1.0mph /  1.6km/h 6.0mph /  9.7km/h 81% 0.00in /  0mm
13:24 32.5 °F /  0.3 °C 27.3 °F /  -2.6 °C 29.73in /  1006.7hPa SSW 4.0mph /  6.4km/h 6.0mph /  9.7km/h 81% 0.00in /  0mm
13:29 32.6 °F /  0.3 °C 27.4 °F /  -2.6 °C 29.73in /  1006.7hPa SSW 2.0mph /  3.2km/h 6.0mph /  9.7km/h 81% 0.00in /  0mm
13:34 32.8 °F /  0.4 °C 27.3 °F /  -2.6 °C 29.73in /  1006.7hPa SSW 1.0mph /  1.6km/h 6.0mph /  9.7km/h 80% 0.00in /  0mm
13:39 33.0 °F /  0.6 °C 27.5 °F /  -2.5 °C 29.73in /  1006.7hPa Calm   4.0mph /  6.4km/h 80% 0.00in /  0mm
13:44 33.1 °F /  0.6 °C 27.3 °F /  -2.6 °C 29.73in /  1006.7hPa SSW 2.0mph /  3.2km/h 4.0mph /  6.4km/h 79% 0.00in /  0mm
13:49 33.2 °F /  0.7 °C 27.1 °F /  -2.7 °C 29.73in /  1006.7hPa SW 3.0mph /  4.8km/h 7.0mph /  11.3km/h 78% 0.00in /  0mm
13:54 33.7 °F /  0.9 °C 26.9 °F /  -2.8 °C 29.74in /  1007hPa WNW 4.0mph /  6.4km/h 9.0mph /  14.5km/h 76% 0.00in /  0mm
13:59 34.0 °F /  1.1 °C 26.6 °F /  -3 °C 29.74in /  1007hPa WNW 6.0mph /  9.7km/h 10.0mph /  16.1km/h 74% 0.00in /  0mm
14:04 34.4 °F /  1.3 °C 27.0 °F /  -2.8 °C 29.74in /  1007hPa WNW 4.0mph /  6.4km/h 10.0mph /  16.1km/h 74% 0.00in /  0mm
14:09 34.4 °F /  1.3 °C 26.6 °F /  -3 °C 29.74in /  1007hPa NW 5.0mph /  8km/h 12.0mph /  19.3km/h 73% 0.00in /  0mm
14:14 34.4 °F /  1.3 °C 26.6 °F /  -3 °C 29.75in /  1007.3hPa NW 5.0mph /  8km/h 12.0mph /  19.3km/h 73% 0.00in /  0mm
14:19 34.4 °F /  1.3 °C 26.3 °F /  -3.2 °C 29.75in /  1007.3hPa WNW 4.0mph /  6.4km/h 14.0mph /  22.5km/h 72% 0.00in /  0mm
14:24 34.4 °F /  1.3 °C 26.0 °F /  -3.3 °C 29.76in /  1007.7hPa NW 7.0mph /  11.3km/h 14.0mph /  22.5km/h 71% 0.00in /  0mm
14:34 34.4 °F /  1.3 °C 25.6 °F /  -3.6 °C 29.77in /  1008hPa NNW 5.0mph /  8km/h 12.0mph /  19.3km/h 70% 0.00in /  0mm
14:39 34.3 °F /  1.3 °C 25.5 °F /  -3.6 °C 29.77in /  1008hPa NW 7.0mph /  11.3km/h 12.0mph /  19.3km/h 70% 0.00in /  0mm
14:44 34.3 °F /  1.3 °C 25.2 °F /  -3.8 °C 29.77in /  1008hPa NW 4.0mph /  6.4km/h 14.0mph /  22.5km/h 69% 0.00in /  0mm
14:49 34.2 °F /  1.2 °C 25.4 °F /  -3.7 °C 29.77in /  1008hPa NW 5.0mph /  8km/h 14.0mph /  22.5km/h 70% 0.00in /  0mm
14:54 34.2 °F /  1.2 °C 25.1 °F /  -3.8 °C 29.78in /  1008.4hPa NW 7.0mph /  11.3km/h 15.0mph /  24.1km/h 69% 0.00in /  0mm
14:59 34.2 °F /  1.2 °C 25.1 °F /  -3.8 °C 29.79in /  1008.7hPa NW 6.0mph /  9.7km/h 15.0mph /  24.1km/h 69% 0.00in /  0mm
15:04 34.1 °F /  1.2 °C 25.3 °F /  -3.7 °C 29.79in /  1008.7hPa NW 5.0mph /  8km/h 12.0mph /  19.3km/h 70% 0.00in /  0mm
15:09 33.9 °F /  1.1 °C 25.5 °F /  -3.6 °C 29.80in /  1009hPa NNW 6.0mph /  9.7km/h 11.0mph /  17.7km/h 71% 0.00in /  0mm
15:14 33.6 °F /  0.9 °C 25.5 °F /  -3.6 °C 29.80in /  1009hPa NW 10.0mph /  16.1km/h 21.0mph /  33.8km/h 72% 0.00in /  0mm
15:19 33.3 °F /  0.7 °C 25.3 °F /  -3.7 °C 29.80in /  1009hPa NW 9.0mph /  14.5km/h 21.0mph /  33.8km/h 72% 0.00in /  0mm
15:24 33.1 °F /  0.6 °C 24.7 °F /  -4.1 °C 29.80in /  1009hPa WNW 8.0mph /  12.9km/h 19.0mph /  30.6km/h 71% 0.00in /  0mm
15:34 32.9 °F /  0.5 °C 23.8 °F /  -4.6 °C 29.81in /  1009.4hPa NW 11.0mph /  17.7km/h 24.0mph /  38.6km/h 69% 0.00in /  0mm
15:39 32.8 °F /  0.4 °C 23.4 °F /  -4.8 °C 29.82in /  1009.7hPa NW 11.0mph /  17.7km/h 24.0mph /  38.6km/h 68% 0.00in /  0mm
15:44 32.7 °F /  0.4 °C 23.3 °F /  -4.8 °C 29.82in /  1009.7hPa NW 11.0mph /  17.7km/h 23.0mph /  37km/h 68% 0.00in /  0mm
15:49 32.6 °F /  0.3 °C 22.9 °F /  -5.1 °C 29.82in /  1009.7hPa NW 12.0mph /  19.3km/h 23.0mph /  37km/h 67% 0.00in /  0mm
15:54 32.5 °F /  0.3 °C 22.8 °F /  -5.1 °C 29.82in /  1009.7hPa NW 11.0mph /  17.7km/h 22.0mph /  35.4km/h 67% 0.00in /  0mm
15:59 32.5 °F /  0.3 °C 22.8 °F /  -5.1 °C 29.82in /  1009.7hPa NW 6.0mph /  9.7km/h 16.0mph /  25.7km/h 67% 0.00in /  0mm
16:04 32.4 °F /  0.2 °C 22.7 °F /  -5.2 °C 29.83in /  1010hPa NW 10.0mph /  16.1km/h 19.0mph /  30.6km/h 67% 0.00in /  0mm
16:09 32.3 °F /  0.2 °C 23.3 °F /  -4.8 °C 29.83in /  1010hPa NNW 5.0mph /  8km/h 19.0mph /  30.6km/h 69% 0.00in /  0mm
16:14 32.2 °F /  0.1 °C 23.9 °F /  -4.5 °C 29.84in /  1010.4hPa NW 9.0mph /  14.5km/h 15.0mph /  24.1km/h 71% 0.00in /  0mm
16:19 31.9 °F /  -0.1 °C 24.2 °F /  -4.3 °C 29.84in /  1010.4hPa NNW 6.0mph /  9.7km/h 16.0mph /  25.7km/h 73% 0.00in /  0mm
16:24 31.6 °F /  -0.2 °C 23.9 °F /  -4.5 °C 29.84in /  1010.4hPa NNW 8.0mph /  12.9km/h 16.0mph /  25.7km/h 73% 0.00in /  0mm
16:29 31.3 °F /  -0.4 °C 24.0 °F /  -4.4 °C 29.85in /  1010.7hPa NW 9.0mph /  14.5km/h 17.0mph /  27.4km/h 74% 0.00in /  0mm
16:34 31.1 °F /  -0.5 °C 24.1 °F /  -4.4 °C 29.85in /  1010.7hPa NW 7.0mph /  11.3km/h 17.0mph /  27.4km/h 75% 0.00in /  0mm
16:39 30.9 °F /  -0.6 °C 23.9 °F /  -4.5 °C 29.85in /  1010.7hPa NNW 9.0mph /  14.5km/h 18.0mph /  29km/h 75% 0.00in /  0mm
16:44 30.7 °F /  -0.7 °C 23.4 °F /  -4.8 °C 29.86in /  1011.1hPa NW 8.0mph /  12.9km/h 18.0mph /  29km/h 74% 0.00in /  0mm
16:49 30.6 °F /  -0.8 °C 23.3 °F /  -4.8 °C 29.86in /  1011.1hPa NW 5.0mph /  8km/h 18.0mph /  29km/h 74% 0.00in /  0mm
16:54 30.4 °F /  -0.9 °C 23.1 °F /  -4.9 °C 29.86in /  1011.1hPa NW 12.0mph /  19.3km/h 20.0mph /  32.2km/h 74% 0.00in /  0mm
16:59 30.2 °F /  -1 °C 22.6 °F /  -5.2 °C 29.86in /  1011.1hPa NNW 6.0mph /  9.7km/h 20.0mph /  32.2km/h 73% 0.00in /  0mm
17:04 30.0 °F /  -1.1 °C 22.1 °F /  -5.5 °C 29.87in /  1011.4hPa NNW 5.0mph /  8km/h 16.0mph /  25.7km/h 72% 0.00in /  0mm
17:09 29.8 °F /  -1.2 °C 21.2 °F /  -6 °C 29.87in /  1011.4hPa NW 10.0mph /  16.1km/h 17.0mph /  27.4km/h 70% 0.00in /  0mm
17:14 29.6 °F /  -1.3 °C 21.0 °F /  -6.1 °C 29.88in /  1011.7hPa NW 8.0mph /  12.9km/h 17.0mph /  27.4km/h 70% 0.00in /  0mm
17:19 29.5 °F /  -1.4 °C 20.6 °F /  -6.3 °C 29.87in /  1011.4hPa NW 11.0mph /  17.7km/h 25.0mph /  40.2km/h 69% 0.00in /  0mm
17:24 29.4 °F /  -1.4 °C 20.5 °F /  -6.4 °C 29.88in /  1011.7hPa NW 7.0mph /  11.3km/h 25.0mph /  40.2km/h 69% 0.00in /  0mm
17:29 29.2 °F /  -1.6 °C 20.0 °F /  -6.7 °C 29.88in /  1011.7hPa WNW 7.0mph /  11.3km/h 17.0mph /  27.4km/h 68% 0.00in /  0mm
17:34 29.0 °F /  -1.7 °C 19.8 °F /  -6.8 °C 29.88in /  1011.7hPa WNW 6.0mph /  9.7km/h 17.0mph /  27.4km/h 68% 0.00in /  0mm
17:39 28.8 °F /  -1.8 °C 19.9 °F /  -6.7 °C 29.88in /  1011.7hPa NNW 5.0mph /  8km/h 16.0mph /  25.7km/h 69% 0.00in /  0mm
17:44 28.7 °F /  -1.8 °C 20.8 °F /  -6.2 °C 29.88in /  1011.7hPa NNW 3.0mph /  4.8km/h 9.0mph /  14.5km/h 72% 0.00in /  0mm
17:49 28.3 °F /  -2.1 °C 20.8 °F /  -6.2 °C 29.88in /  1011.7hPa NNW 5.0mph /  8km/h 11.0mph /  17.7km/h 73% 0.00in /  0mm
17:54 27.9 °F /  -2.3 °C 20.4 °F /  -6.4 °C 29.89in /  1012.1hPa NNW 5.0mph /  8km/h 11.0mph /  17.7km/h 73% 0.00in /  0mm
17:59 27.4 °F /  -2.6 °C 20.2 °F /  -6.6 °C 29.89in /  1012.1hPa NNW 1.0mph /  1.6km/h 10.0mph /  16.1km/h 74% 0.00in /  0mm
18:04 27.1 °F /  -2.7 °C 19.9 °F /  -6.7 °C 29.90in /  1012.4hPa NNW 3.0mph /  4.8km/h 10.0mph /  16.1km/h 74% 0.00in /  0mm
18:09 26.9 °F /  -2.8 °C 19.7 °F /  -6.8 °C 29.90in /  1012.4hPa NW 3.0mph /  4.8km/h 12.0mph /  19.3km/h 74% 0.00in /  0mm
18:14 26.7 °F /  -2.9 °C 19.5 °F /  -6.9 °C 29.90in /  1012.4hPa NW 2.0mph /  3.2km/h 12.0mph /  19.3km/h 74% 0.00in /  0mm
18:19 26.7 °F /  -2.9 °C 19.5 °F /  -6.9 °C 29.90in /  1012.4hPa NW 4.0mph /  6.4km/h 8.0mph /  12.9km/h 74% 0.00in /  0mm
18:24 26.6 °F /  -3 °C 19.4 °F /  -7 °C 29.90in /  1012.4hPa NW 2.0mph /  3.2km/h 8.0mph /  12.9km/h 74% 0.00in /  0mm
18:29 26.5 °F /  -3.1 °C 19.3 °F /  -7.1 °C 29.91in /  1012.8hPa NW 3.0mph /  4.8km/h 9.0mph /  14.5km/h 74% 0.00in /  0mm
18:34 26.4 °F /  -3.1 °C 19.2 °F /  -7.1 °C 29.91in /  1012.8hPa NNW 2.0mph /  3.2km/h 9.0mph /  14.5km/h 74% 0.00in /  0mm
18:39 26.3 °F /  -3.2 °C 19.1 °F /  -7.2 °C 29.91in /  1012.8hPa NW 3.0mph /  4.8km/h 8.0mph /  12.9km/h 74% 0.00in /  0mm
18:44 26.1 °F /  -3.3 °C 19.0 °F /  -7.2 °C 29.91in /  1012.8hPa NW 3.0mph /  4.8km/h 11.0mph /  17.7km/h 74% 0.00in /  0mm
18:49 25.9 °F /  -3.4 °C 18.4 °F /  -7.6 °C 29.92in /  1013.1hPa NW 2.0mph /  3.2km/h 11.0mph /  17.7km/h 73% 0.00in /  0mm
18:54 25.6 °F /  -3.6 °C 18.5 °F /  -7.5 °C 29.91in /  1012.8hPa NNW 3.0mph /  4.8km/h 11.0mph /  17.7km/h 74% 0.00in /  0mm
18:59 25.2 °F /  -3.8 °C 18.1 °F /  -7.7 °C 29.92in /  1013.1hPa NNW 2.0mph /  3.2km/h 8.0mph /  12.9km/h 74% 0.00in /  0mm
19:04 24.9 °F /  -3.9 °C 17.5 °F /  -8.1 °C 29.92in /  1013.1hPa NNW 3.0mph /  4.8km/h 8.0mph /  12.9km/h 73% 0.00in /  0mm
19:09 24.5 °F /  -4.2 °C 17.1 °F /  -8.3 °C 29.92in /  1013.1hPa NNW 4.0mph /  6.4km/h 11.0mph /  17.7km/h 73% 0.00in /  0mm
19:14 24.3 °F /  -4.3 °C 16.9 °F /  -8.4 °C 29.93in /  1013.4hPa NNW 4.0mph /  6.4km/h 11.0mph /  17.7km/h 73% 0.00in /  0mm
19:19 24.0 °F /  -4.4 °C 16.6 °F /  -8.6 °C 29.93in /  1013.4hPa North 3.0mph /  4.8km/h 8.0mph /  12.9km/h 73% 0.00in /  0mm
19:24 23.9 °F /  -4.5 °C 16.5 °F /  -8.6 °C 29.93in /  1013.4hPa NNW 4.0mph /  6.4km/h 9.0mph /  14.5km/h 73% 0.00in /  0mm
19:29 23.9 °F /  -4.5 °C 16.2 °F /  -8.8 °C 29.94in /  1013.8hPa NNW 2.0mph /  3.2km/h 10.0mph /  16.1km/h 72% 0.00in /  0mm
19:34 23.8 °F /  -4.6 °C 15.8 °F /  -9 °C 29.94in /  1013.8hPa NW 1.0mph /  1.6km/h 10.0mph /  16.1km/h 71% 0.00in /  0mm
19:39 23.6 °F /  -4.7 °C 15.6 °F /  -9.1 °C 29.94in /  1013.8hPa NNW 4.0mph /  6.4km/h 8.0mph /  12.9km/h 71% 0.00in /  0mm
19:44 23.5 °F /  -4.7 °C 15.8 °F /  -9 °C 29.95in /  1014.1hPa North 1.0mph /  1.6km/h 7.0mph /  11.3km/h 72% 0.00in /  0mm
19:49 23.4 °F /  -4.8 °C 15.7 °F /  -9.1 °C 29.95in /  1014.1hPa North 1.0mph /  1.6km/h 5.0mph /  8km/h 72% 0.00in /  0mm
19:54 23.5 °F /  -4.7 °C 16.1 °F /  -8.8 °C 29.95in /  1014.1hPa Calm   5.0mph /  8km/h 73% 0.00in /  0mm
19:59 23.5 °F /  -4.7 °C 16.1 °F /  -8.8 °C 29.95in /  1014.1hPa North 2.0mph /  3.2km/h 7.0mph /  11.3km/h 73% 0.00in /  0mm
20:04 23.4 °F /  -4.8 °C 16.0 °F /  -8.9 °C 29.95in /  1014.1hPa North 1.0mph /  1.6km/h 9.0mph /  14.5km/h 73% 0.00in /  0mm
20:09 23.3 °F /  -4.8 °C 15.9 °F /  -8.9 °C 29.96in /  1014.4hPa NNW 2.0mph /  3.2km/h 9.0mph /  14.5km/h 73% 0.00in /  0mm
20:14 23.1 °F /  -4.9 °C 15.7 °F /  -9.1 °C 29.96in /  1014.4hPa NNW 1.0mph /  1.6km/h 5.0mph /  8km/h 73% 0.00in /  0mm
20:19 23.0 °F /  -5 °C 15.3 °F /  -9.3 °C 29.97in /  1014.8hPa North 3.0mph /  4.8km/h 8.0mph /  12.9km/h 72% 0.00in /  0mm
20:24 22.9 °F /  -5.1 °C 15.2 °F /  -9.3 °C 29.97in /  1014.8hPa North 3.0mph /  4.8km/h 8.0mph /  12.9km/h 72% 0.00in /  0mm
20:29 22.7 °F /  -5.2 °C 15.0 °F /  -9.4 °C 29.97in /  1014.8hPa North 3.0mph /  4.8km/h 8.0mph /  12.9km/h 72% 0.00in /  0mm
20:35 22.5 °F /  -5.3 °C 14.2 °F /  -9.9 °C 29.97in /  1014.8hPa NNW 3.0mph /  4.8km/h 8.0mph /  12.9km/h 70% 0.00in /  0mm
20:44 22.1 °F /  -5.5 °C 13.8 °F /  -10.1 °C 29.96in /  1014.4hPa Calm   11.0mph /  17.7km/h 70% 0.00in /  0mm
20:49 21.9 °F /  -5.6 °C 13.6 °F /  -10.2 °C 29.96in /  1014.4hPa North 1.0mph /  1.6km/h 8.0mph /  12.9km/h 70% 0.00in /  0mm
20:54 21.7 °F /  -5.7 °C 13.4 °F /  -10.3 °C 29.96in /  1014.4hPa North 2.0mph /  3.2km/h 7.0mph /  11.3km/h 70% 0.00in /  0mm
20:59 21.6 °F /  -5.8 °C 13.3 °F /  -10.4 °C 29.97in /  1014.8hPa Calm   5.0mph /  8km/h 70% 0.00in /  0mm
21:04 21.5 °F /  -5.8 °C 13.2 °F /  -10.4 °C 29.97in /  1014.8hPa NE 3.0mph /  4.8km/h 10.0mph /  16.1km/h 70% 0.00in /  0mm
21:09 21.5 °F /  -5.8 °C 12.9 °F /  -10.6 °C 29.97in /  1014.8hPa North 2.0mph /  3.2km/h 10.0mph /  16.1km/h 69% 0.00in /  0mm
21:14 21.3 °F /  -5.9 °C 12.4 °F /  -10.9 °C 29.97in /  1014.8hPa NNE 2.0mph /  3.2km/h 9.0mph /  14.5km/h 68% 0.00in /  0mm
21:19 21.2 °F /  -6 °C 12.0 °F /  -11.1 °C 29.98in /  1015.1hPa NNE 1.0mph /  1.6km/h 9.0mph /  14.5km/h 67% 0.00in /  0mm
21:24 21.1 °F /  -6.1 °C 12.2 °F /  -11 °C 29.98in /  1015.1hPa NNW 2.0mph /  3.2km/h 7.0mph /  11.3km/h 68% 0.00in /  0mm
21:29 21.0 °F /  -6.1 °C 12.1 °F /  -11.1 °C 29.97in /  1014.8hPa North 2.0mph /  3.2km/h 7.0mph /  11.3km/h 68% 0.00in /  0mm
21:34 20.9 °F /  -6.2 °C 12.0 °F /  -11.1 °C 29.97in /  1014.8hPa North 1.0mph /  1.6km/h 7.0mph /  11.3km/h 68% 0.00in /  0mm
21:39 20.8 °F /  -6.2 °C 11.9 °F /  -11.2 °C 29.98in /  1015.1hPa North 1.0mph /  1.6km/h 7.0mph /  11.3km/h 68% 0.00in /  0mm
21:44 20.7 °F /  -6.3 °C 11.8 °F /  -11.2 °C 29.97in /  1014.8hPa NNE 3.0mph /  4.8km/h 11.0mph /  17.7km/h 68% 0.00in /  0mm
21:49 20.6 °F /  -6.3 °C 11.4 °F /  -11.4 °C 29.97in /  1014.8hPa North 2.0mph /  3.2km/h 11.0mph /  17.7km/h 67% 0.00in /  0mm
21:54 20.4 °F /  -6.4 °C 10.9 °F /  -11.7 °C 29.98in /  1015.1hPa Calm   6.0mph /  9.7km/h 66% 0.00in /  0mm
21:59 20.4 °F /  -6.4 °C 10.9 °F /  -11.7 °C 29.98in /  1015.1hPa Calm   4.0mph /  6.4km/h 66% 0.00in /  0mm
22:04 20.3 °F /  -6.5 °C 11.1 °F /  -11.6 °C 29.98in /  1015.1hPa Calm   4.0mph /  6.4km/h 67% 0.00in /  0mm
22:09 20.2 °F /  -6.6 °C 10.7 °F /  -11.8 °C 29.98in /  1015.1hPa NNE 1.0mph /  1.6km/h 4.0mph /  6.4km/h 66% 0.00in /  0mm
22:14 20.2 °F /  -6.6 °C 10.7 °F /  -11.8 °C 29.98in /  1015.1hPa NW 1.0mph /  1.6km/h 4.0mph /  6.4km/h 66% 0.00in /  0mm
22:19 20.1 °F /  -6.6 °C 10.6 °F /  -11.9 °C 29.98in /  1015.1hPa NNW 1.0mph /  1.6km/h 6.0mph /  9.7km/h 66% 0.00in /  0mm
22:24 20.0 °F /  -6.7 °C 10.5 °F /  -11.9 °C 29.98in /  1015.1hPa Calm   6.0mph /  9.7km/h 66% 0.00in /  0mm
22:29 19.8 °F /  -6.8 °C 10.6 °F /  -11.9 °C 29.98in /  1015.1hPa NNW 1.0mph /  1.6km/h 4.0mph /  6.4km/h 67% 0.00in /  0mm
22:34 19.7 °F /  -6.8 °C 10.5 °F /  -11.9 °C 29.97in /  1014.8hPa NNE 1.0mph /  1.6km/h 5.0mph /  8km/h 67% 0.00in /  0mm
22:39 19.7 °F /  -6.8 °C 10.9 °F /  -11.7 °C 29.98in /  1015.1hPa North 1.0mph /  1.6km/h 8.0mph /  12.9km/h 68% 0.00in /  0mm
22:44 19.7 °F /  -6.8 °C 10.5 °F /  -11.9 °C 29.98in /  1015.1hPa North 1.0mph /  1.6km/h 8.0mph /  12.9km/h 67% 0.00in /  0mm
22:49 19.4 °F /  -7 °C 10.6 °F /  -11.9 °C 29.98in /  1015.1hPa North 1.0mph /  1.6km/h 4.0mph /  6.4km/h 68% 0.00in /  0mm
22:54 19.3 °F /  -7.1 °C 10.5 °F /  -11.9 °C 29.98in /  1015.1hPa Calm   4.0mph /  6.4km/h 68% 0.00in /  0mm
22:59 19.1 °F /  -7.2 °C 10.3 °F /  -12.1 °C 29.99in /  1015.5hPa NNE 2.0mph /  3.2km/h 7.0mph /  11.3km/h 68% 0.00in /  0mm
23:04 19.1 °F /  -7.2 °C 10.3 °F /  -12.1 °C 29.98in /  1015.1hPa NNE 1.0mph /  1.6km/h 7.0mph /  11.3km/h 68% 0.00in /  0mm
23:09 19.0 °F /  -7.2 °C 10.5 °F /  -11.9 °C 29.98in /  1015.1hPa NNE 1.0mph /  1.6km/h 4.0mph /  6.4km/h 69% 0.00in /  0mm
23:14 18.9 °F /  -7.3 °C 10.4 °F /  -12 °C 29.99in /  1015.5hPa Calm   6.0mph /  9.7km/h 69% 0.00in /  0mm
23:19 18.7 °F /  -7.4 °C 10.2 °F /  -12.1 °C 29.98in /  1015.1hPa Calm   6.0mph /  9.7km/h 69% 0.00in /  0mm
23:24 18.4 °F /  -7.6 °C 10.3 °F /  -12.1 °C 29.99in /  1015.5hPa NNE 1.0mph /  1.6km/h 4.0mph /  6.4km/h 70% 0.00in /  0mm
23:29 18.2 °F /  -7.7 °C 10.1 °F /  -12.2 °C 29.98in /  1015.1hPa NNE 1.0mph /  1.6km/h 6.0mph /  9.7km/h 70% 0.00in /  0mm
23:34 18.1 °F /  -7.7 °C 10.0 °F /  -12.2 °C 29.99in /  1015.5hPa Calm   6.0mph /  9.7km/h 70% 0.00in /  0mm
23:39 18.0 °F /  -7.8 °C 9.9 °F /  -12.3 °C 29.98in /  1015.1hPa NNE 1.0mph /  1.6km/h 6.0mph /  9.7km/h 70% 0.00in /  0mm
23:44 17.9 °F /  -7.8 °C 9.8 °F /  -12.3 °C 29.99in /  1015.5hPa NE 1.0mph /  1.6km/h 6.0mph /  9.7km/h 70% 0.00in /  0mm
23:49 17.8 °F /  -7.9 °C 9.7 °F /  -12.4 °C 29.99in /  1015.5hPa Calm   3.0mph /  4.8km/h 70% 0.00in /  0mm
23:54 17.5 °F /  -8.1 °C 9.4 °F /  -12.6 °C 29.98in /  1015.1hPa Calm   3.0mph /  4.8km/h 70% 0.00in /  0mm
23:59 17.2 °F /  -8.2 °C 9.4 °F /  -12.6 °C 29.98in /  1015.1hPa Calm   5.0mph /  8km/h 71% 0.00in /  0mm
Westford Weather
Compliments of Weather Underground

 
 
Current Radar Loop:

Copyright © WestfordWeather.net 2007-2014. All rights reserved.